createdAt,value
2022-11-07T00:01:40.951Z,7.16
2022-11-07T00:04:07.914Z,7.24
2022-11-07T00:06:37.615Z,7.16
2022-11-07T00:09:05.044Z,7.15
2022-11-07T00:11:31.935Z,7.11
2022-11-07T00:13:58.802Z,7.15
2022-11-07T00:16:26.914Z,7.22
2022-11-07T00:18:53.745Z,7.16
2022-11-07T00:21:20.837Z,7.24
2022-11-07T00:23:47.693Z,7.29
2022-11-07T00:26:15.243Z,7.34
2022-11-07T00:28:43.546Z,7.35
2022-11-07T00:31:12.832Z,7.39
2022-11-07T00:33:40.732Z,7.38
2022-11-07T00:36:08.416Z,7.37
2022-11-07T00:38:35.281Z,7.35
2022-11-07T00:41:06.420Z,7.37
2022-11-07T00:43:33.809Z,7.39
2022-11-07T00:46:04.909Z,7.37
2022-11-07T00:48:32.905Z,7.33
2022-11-07T00:51:12.614Z,7.43
2022-11-07T00:53:39.747Z,7.41
2022-11-07T00:56:09.373Z,7.38
2022-11-07T00:58:36.977Z,7.38
2022-11-07T01:01:09.420Z,7.41
2022-11-07T01:03:55.536Z,7.42
2022-11-07T01:06:22.547Z,7.34
2022-11-07T01:08:49.732Z,7.29
2022-11-07T01:11:16.558Z,7.29
2022-11-07T01:13:43.453Z,7.26
2022-11-07T01:16:11.366Z,7.14
2022-11-07T01:18:38.441Z,7.23
2022-11-07T01:21:08.858Z,7.22
2022-11-07T01:23:39.057Z,7.10
2022-11-07T01:26:07.541Z,7.18
2022-11-07T01:28:35.342Z,7.16
2022-11-07T01:31:08.321Z,7.13
2022-11-07T01:33:35.795Z,7.16
2022-11-07T01:36:06.373Z,7.07
2022-11-07T01:38:33.351Z,7.08
2022-11-07T01:41:18.770Z,7.14
2022-11-07T01:43:51.754Z,7.11
2022-11-07T01:46:19.221Z,7.06
2022-11-07T01:48:58.838Z,6.97
2022-11-07T01:51:28.499Z,6.96
2022-11-07T01:53:56.741Z,6.83
2022-11-07T01:56:28.533Z,6.98
2022-11-07T01:58:57.827Z,6.95
2022-11-07T02:01:25.370Z,6.97
2022-11-07T02:03:53.433Z,6.91
2022-11-07T02:06:28.007Z,6.90
2022-11-07T02:08:55.257Z,6.86
2022-11-07T02:11:23.666Z,6.90
2022-11-07T02:13:50.585Z,6.92
2022-11-07T02:16:17.476Z,6.85
2022-11-07T02:18:45.758Z,6.93
2022-11-07T02:21:31.449Z,7.02
2022-11-07T02:24:06.641Z,6.96
2022-11-07T02:26:35.933Z,6.94
2022-11-07T02:29:08.171Z,7.02
2022-11-07T02:31:35.237Z,7.05
2022-11-07T02:34:02.061Z,7.06
2022-11-07T02:36:29.009Z,7.13
2022-11-07T02:38:58.870Z,7.08
2022-11-07T02:41:32.614Z,7.02
2022-11-07T02:44:05.148Z,7.01
2022-11-07T02:46:33.025Z,6.90
2022-11-07T02:49:01.322Z,7.06
2022-11-07T02:51:28.873Z,7.09
2022-11-07T02:53:56.044Z,7.17
2022-11-07T02:56:23.558Z,7.18
2022-11-07T02:58:52.619Z,7.14
2022-11-07T03:01:20.107Z,7.20
2022-11-07T03:03:49.935Z,7.19
2022-11-07T03:06:20.032Z,7.21
2022-11-07T03:08:47.358Z,7.20
2022-11-07T03:11:14.891Z,7.13
2022-11-07T03:13:41.758Z,7.15
2022-11-07T03:16:10.605Z,7.14
2022-11-07T03:18:38.697Z,7.22
2022-11-07T03:21:06.501Z,7.16
2022-11-07T03:23:34.962Z,7.15
2022-11-07T03:26:02.751Z,7.32
2022-11-07T03:28:29.776Z,7.24
2022-11-07T03:31:00.929Z,7.23
2022-11-07T03:33:29.194Z,7.29
2022-11-07T03:35:56.077Z,7.25
2022-11-07T03:38:23.021Z,7.14
2022-11-07T03:40:49.875Z,7.18
2022-11-07T03:43:17.260Z,7.18
2022-11-07T03:45:44.320Z,7.24
2022-11-07T03:48:11.131Z,7.13
2022-11-07T03:50:38.057Z,7.22
2022-11-07T03:53:05.031Z,7.29
2022-11-07T03:55:32.894Z,7.17
2022-11-07T03:57:59.745Z,7.07
2022-11-07T04:00:26.668Z,7.14
2022-11-07T04:02:53.618Z,7.07
2022-11-07T04:05:20.550Z,7.01
2022-11-07T04:07:47.425Z,7.07
2022-11-07T04:10:14.359Z,7.07
2022-11-07T04:13:00.109Z,7.13
2022-11-07T04:15:45.580Z,7.08
2022-11-07T04:18:12.550Z,7.03
2022-11-07T04:20:39.443Z,7.06
2022-11-07T04:23:06.286Z,7.08
2022-11-07T04:25:52.031Z,7.06
2022-11-07T04:28:19.060Z,7.00
2022-11-07T04:30:45.968Z,7.06
2022-11-07T04:33:13.588Z,7.02
2022-11-07T04:35:40.662Z,7.06
2022-11-07T04:38:07.404Z,7.11
2022-11-07T04:40:34.331Z,7.17
2022-11-07T04:43:01.362Z,7.11
2022-11-07T04:45:28.368Z,7.13
2022-11-07T04:47:55.359Z,7.10
2022-11-07T04:50:22.324Z,7.11
2022-11-07T04:52:49.345Z,7.14
2022-11-07T04:55:25.316Z,7.17
2022-11-07T04:57:52.550Z,7.17
2022-11-07T05:00:20.408Z,7.15
2022-11-07T05:02:48.077Z,7.25
2022-11-07T05:05:15.660Z,7.33
2022-11-07T05:07:44.109Z,7.32
2022-11-07T05:10:20.650Z,7.33
2022-11-07T05:12:48.633Z,7.33
2022-11-07T05:15:16.892Z,7.28
2022-11-07T05:17:44.574Z,7.31
2022-11-07T05:20:34.177Z,7.44
2022-11-07T05:23:15.907Z,7.42
2022-11-07T05:25:46.205Z,7.46
2022-11-07T05:28:25.679Z,7.52
2022-11-07T05:31:03.127Z,7.49
2022-11-07T05:33:31.054Z,7.47
2022-11-07T05:35:58.239Z,7.47
2022-11-07T05:38:25.145Z,7.43
2022-11-07T05:40:52.184Z,7.47
2022-11-07T05:43:19.240Z,7.36
2022-11-07T05:45:46.060Z,7.36
2022-11-07T05:48:14.362Z,7.27
2022-11-07T05:50:41.933Z,7.25
2022-11-07T05:53:09.275Z,7.14
2022-11-07T05:55:36.381Z,7.10
2022-11-07T05:58:14.883Z,7.20
2022-11-07T06:00:42.425Z,7.19
2022-11-07T06:03:11.127Z,7.13
2022-11-07T06:05:39.538Z,7.05
2022-11-07T06:08:08.032Z,7.08
2022-11-07T06:10:37.034Z,7.17
2022-11-07T10:14:31.713Z,7.80
2022-11-07T10:30:19.133Z,9.54
2022-11-07T10:33:25.257Z,9.46
2022-11-07T10:36:01.366Z,9.26
2022-11-07T10:38:30.687Z,9.23
2022-11-07T10:40:57.993Z,9.38
2022-11-07T10:43:35.125Z,9.27
2022-11-07T10:46:05.028Z,9.38
2022-11-07T10:48:33.503Z,9.27
2022-11-07T10:51:00.914Z,9.06
2022-11-07T10:53:28.931Z,9.16
2022-11-07T10:55:56.957Z,9.16
2022-11-07T10:58:35.969Z,9.21
2022-11-07T11:01:09.401Z,9.28
2022-11-07T11:03:45.814Z,9.32
2022-11-07T11:06:28.781Z,9.52
2022-11-07T11:08:56.289Z,9.73
2022-11-07T11:11:31.092Z,10.17
2022-11-07T11:14:03.524Z,10.25
2022-11-07T11:16:34.360Z,10.48
2022-11-07T11:19:02.771Z,10.53
2022-11-07T11:21:44.966Z,10.54
2022-11-07T11:24:18.192Z,10.46
2022-11-07T11:26:49.155Z,10.38
2022-11-07T11:29:39.876Z,10.02
2022-11-07T11:32:17.070Z,9.96
2022-11-07T11:35:06.101Z,9.83
2022-11-07T11:37:38.833Z,9.82
2022-11-07T11:40:17.019Z,9.76
2022-11-07T11:43:33.131Z,9.64
2022-11-07T11:46:03.197Z,9.50
2022-11-07T11:48:48.473Z,9.52
2022-11-07T11:51:45.990Z,9.52
2022-11-07T11:54:15.957Z,9.62
2022-11-07T11:56:43.138Z,9.60
2022-11-07T11:59:31.652Z,9.50
2022-11-07T12:02:17.337Z,9.51
2022-11-07T12:05:09.058Z,9.44
2022-11-07T12:08:14.776Z,9.47
2022-11-07T12:10:49.470Z,9.33
2022-11-07T12:13:20.553Z,9.44
2022-11-07T12:16:00.226Z,9.43
2022-11-07T12:19:03.987Z,9.28
2022-11-07T12:21:43.472Z,9.30
2022-11-07T12:24:21.852Z,9.35
2022-11-07T12:27:00.984Z,9.48
2022-11-07T12:29:42.291Z,9.50
2022-11-07T12:32:29.830Z,9.45
2022-11-07T12:35:03.120Z,9.60
2022-11-07T12:37:39.335Z,9.71
2022-11-07T12:40:18.387Z,9.63
2022-11-07T12:43:00.025Z,9.70
2022-11-07T12:45:43.428Z,9.81
2022-11-07T12:48:25.062Z,9.87
2022-11-07T12:51:02.515Z,9.93
2022-11-07T12:53:41.750Z,9.97
2022-11-07T12:56:14.313Z,10.06
2022-11-07T12:58:43.265Z,9.99
2022-11-07T13:01:14.181Z,10.00
2022-11-07T13:03:59.951Z,9.83
2022-11-07T13:06:33.945Z,9.93
2022-11-07T13:09:22.764Z,9.82
2022-11-07T13:11:50.170Z,9.68
2022-11-07T13:14:37.130Z,9.55
2022-11-07T13:17:20.212Z,9.44
2022-11-07T13:20:22.428Z,9.38
2022-11-07T13:22:51.302Z,9.21
2022-11-07T13:25:18.496Z,9.18
2022-11-07T13:27:59.918Z,9.13
2022-11-07T13:30:29.836Z,9.02
2022-11-07T13:32:58.909Z,8.94
2022-11-07T13:35:27.588Z,8.96
2022-11-07T13:38:16.581Z,8.89
2022-11-07T13:40:59.009Z,8.82
2022-11-07T13:43:41.109Z,8.66
2022-11-07T13:46:19.801Z,8.57
2022-11-07T13:49:19.241Z,8.46
2022-11-07T13:51:52.222Z,8.35
2022-11-07T13:55:09.714Z,8.16
2022-11-07T13:57:53.853Z,8.00
2022-11-07T14:00:21.557Z,7.90
2022-11-07T18:04:18.876Z,3.00
2022-11-07T18:06:45.429Z,3.20
2022-11-07T18:09:15.924Z,3.42
2022-11-07T18:11:44.370Z,3.68
2022-11-07T18:14:14.417Z,3.90
2022-11-07T18:16:42.343Z,4.11
2022-11-07T18:19:10.344Z,4.30
2022-11-07T18:21:37.832Z,4.44
2022-11-07T18:24:05.630Z,4.57
2022-11-07T18:26:34.037Z,4.68
2022-11-07T18:29:04.976Z,4.71
2022-11-07T18:31:32.221Z,4.81
2022-11-07T18:34:02.259Z,4.85
2022-11-07T18:36:30.910Z,4.90
2022-11-07T18:39:12.815Z,5.02
2022-11-07T18:41:40.310Z,5.04
2022-11-07T18:44:07.966Z,5.09
2022-11-07T18:46:36.334Z,5.22
2022-11-07T18:49:05.422Z,5.29
2022-11-07T18:51:33.564Z,5.38
2022-11-07T18:54:03.098Z,5.38
2022-11-07T18:56:30.466Z,5.51
2022-11-07T18:58:58.084Z,5.48
2022-11-07T19:01:28.493Z,5.62
2022-11-07T19:03:57.748Z,5.58
2022-11-07T19:06:26.749Z,5.55
2022-11-07T19:08:54.231Z,5.62
2022-11-07T19:11:29.278Z,5.58
2022-11-07T19:14:01.173Z,5.66
2022-11-07T19:16:28.814Z,5.62
2022-11-07T19:18:55.906Z,5.63
2022-11-07T19:21:23.676Z,5.58
2022-11-07T19:23:51.821Z,5.66
2022-11-07T19:26:21.842Z,5.62
2022-11-07T19:28:48.934Z,5.61
2022-11-07T19:31:16.621Z,5.66
2022-11-07T19:33:44.170Z,5.67
2022-11-07T19:36:16.978Z,5.68
2022-11-07T19:38:44.336Z,5.54
2022-11-07T19:41:12.477Z,5.62
2022-11-07T19:43:40.071Z,5.47
2022-11-07T19:46:13.573Z,5.40
2022-11-07T19:48:40.492Z,5.34
2022-11-07T19:51:25.100Z,5.23
2022-11-07T19:54:00.386Z,5.13
2022-11-07T19:56:30.645Z,5.03
2022-11-07T19:58:59.487Z,4.96
2022-11-07T20:01:29.302Z,4.87
2022-11-07T20:03:57.274Z,4.85
2022-11-07T20:06:32.747Z,4.87
2022-11-07T20:09:01.541Z,4.81
2022-11-07T20:11:28.438Z,4.76
2022-11-07T20:14:00.242Z,4.74
2022-11-07T20:16:30.323Z,4.79
2022-11-07T20:18:57.715Z,4.82
2022-11-07T20:21:25.713Z,4.87
2022-11-07T20:23:53.841Z,4.91
2022-11-07T20:26:24.698Z,5.01
2022-11-07T20:28:52.585Z,5.06
2022-11-07T20:31:25.540Z,5.07
2022-11-07T20:33:53.274Z,5.13
2022-11-07T20:36:20.768Z,5.11
2022-11-07T20:38:48.150Z,5.25
2022-11-07T20:41:15.413Z,5.26
2022-11-07T20:43:43.785Z,5.29
2022-11-07T20:46:15.304Z,5.18
2022-11-07T20:48:44.407Z,5.19
2022-11-07T20:51:14.375Z,5.17
2022-11-07T20:53:46.730Z,5.26
2022-11-07T20:56:15.710Z,5.37
2022-11-07T20:58:43.654Z,5.20
2022-11-07T21:01:17.507Z,5.19
2022-11-07T21:03:45.022Z,5.22
2022-11-07T21:06:12.422Z,5.37
2022-11-07T21:08:44.774Z,5.27
2022-11-07T21:11:13.522Z,5.22
2022-11-07T21:13:43.069Z,5.30
2022-11-07T21:16:11.464Z,5.38
2022-11-07T21:18:39.024Z,5.35
2022-11-07T21:21:16.534Z,5.25
2022-11-07T21:23:43.721Z,5.37
2022-11-07T21:26:16.076Z,5.44
2022-11-07T21:28:43.473Z,5.43
2022-11-07T21:31:13.507Z,5.34
2022-11-07T21:33:42.285Z,5.41
2022-11-07T21:36:15.488Z,5.46
2022-11-07T21:38:42.953Z,5.40
2022-11-07T21:41:11.334Z,5.36
2022-11-07T21:43:39.047Z,5.24
2022-11-07T21:46:20.525Z,5.19
2022-11-07T21:48:48.513Z,5.19
2022-11-07T21:51:18.452Z,5.18
2022-11-07T21:53:46.309Z,5.05
2022-11-07T21:56:17.321Z,5.08
2022-11-07T21:58:45.149Z,4.96
2022-11-07T22:01:12.263Z,4.97
2022-11-07T22:06:26.378Z,5.16
2022-11-07T22:08:54.175Z,5.14
2022-11-07T22:11:21.474Z,5.21
2022-11-07T22:13:48.604Z,5.21
2022-11-07T22:16:18.242Z,5.28
2022-11-07T22:18:46.130Z,5.27
2022-11-07T22:21:21.114Z,5.11
2022-11-07T22:23:49.107Z,5.02
2022-11-07T22:26:24.302Z,4.98
2022-11-07T22:28:51.919Z,5.11
2022-11-07T22:31:22.949Z,5.01
2022-11-07T22:33:51.216Z,4.99
2022-11-07T22:36:18.799Z,4.91
2022-11-07T22:38:46.182Z,4.89
2022-11-07T22:41:19.163Z,4.92
2022-11-07T22:43:46.907Z,4.80
2022-11-07T22:46:16.703Z,4.82
2022-11-07T22:48:45.651Z,4.84
2022-11-07T22:51:18.257Z,4.76
2022-11-07T22:53:45.299Z,4.76
2022-11-07T22:56:19.762Z,4.71
2022-11-07T22:58:47.672Z,4.80
2022-11-07T23:01:21.571Z,4.74
2022-11-07T23:03:49.406Z,4.75
2022-11-07T23:06:17.635Z,4.79
2022-11-07T23:08:44.931Z,4.87
2022-11-07T23:14:10.214Z,4.95
2022-11-07T23:16:47.939Z,4.91
2022-11-07T23:19:17.700Z,4.97
2022-11-07T23:21:44.793Z,5.11
2022-11-07T23:24:11.709Z,5.06
2022-11-07T23:26:39.384Z,5.01
2022-11-07T23:29:12.627Z,5.03
2022-11-07T23:31:41.305Z,4.86
2022-11-07T23:34:08.470Z,4.92
2022-11-07T23:36:36.267Z,4.92
2022-11-07T23:39:05.384Z,5.05
2022-11-07T23:41:32.619Z,5.09
2022-11-07T23:43:59.872Z,4.90
2022-11-07T23:46:45.290Z,4.89
2022-11-07T23:49:31.123Z,4.91
2022-11-07T23:51:58.026Z,4.96
2022-11-07T23:54:43.652Z,4.92
2022-11-07T23:57:10.852Z,4.95
2022-11-07T23:59:56.338Z,4.84
